Time;durP1;ratioP1;P1;durP2;ratioP2;P2;SDS_P1;SDS_P2;PMS_P1;PMS_P2;Temp;Humidity;BMP_temperature;BMP_pressure;BME280_temperature;BME280_humidity;BME280_pressure;Samples;Min_cycle;Max_cycle;Signal;HPM_P1;HPM_P2
2024/01/07 00:00:47;;;;;;;6.55;1.20;;;;;;;-10.17;67.40;102879.31;5048779;28;20064;-77
2024/01/07 00:03:14;;;;;;;3.42;1.35;;;;;;;-10.11;67.55;102889.13;5049171;28;20557;-79
2024/01/07 00:05:43;;;;;;;6.03;1.58;;;;;;;-10.11;67.62;102899.25;5050421;28;20119;-77
2024/01/07 00:08:10;;;;;;;2.53;0.82;;;;;;;-10.12;67.91;102893.31;5041988;28;20045;-78
2024/01/07 00:10:37;;;;;;;4.07;0.95;;;;;;;-10.13;67.21;102896.59;5048751;28;20045;-77
2024/01/07 00:13:04;;;;;;;3.47;1.20;;;;;;;-10.10;67.43;102901.06;5044600;28;20080;-77
2024/01/07 00:15:31;;;;;;;5.03;1.77;;;;;;;-10.12;67.25;102892.44;5043013;28;20049;-78
2024/01/07 00:17:58;;;;;;;4.10;1.77;;;;;;;-10.09;67.79;102905.38;5041863;28;20056;-77
2024/01/07 00:20:25;;;;;;;3.78;1.52;;;;;;;-10.09;67.75;102906.25;5052727;28;20051;-77
2024/01/07 00:22:53;;;;;;;7.35;1.08;;;;;;;-10.08;67.18;102904.63;5047836;28;20059;-77
2024/01/07 00:25:21;;;;;;;4.80;1.27;;;;;;;-10.15;67.16;102903.16;5043433;28;20076;-77
2024/01/07 00:27:50;;;;;;;2.95;0.98;;;;;;;-10.11;67.18;102907.75;5050866;28;20491;-78
2024/01/07 00:30:17;;;;;;;13.90;3.42;;;;;;;-10.08;67.33;102914.75;5043492;28;20048;-77
2024/01/07 00:32:44;;;;;;;15.93;4.40;;;;;;;-10.09;67.99;102907.91;5051463;28;20099;-77
2024/01/07 00:35:11;;;;;;;6.15;1.70;;;;;;;-10.10;67.25;102913.72;5046964;28;20091;-77
2024/01/07 00:37:38;;;;;;;7.93;1.77;;;;;;;-10.10;67.85;102913.72;5051189;28;20073;-77
2024/01/07 00:40:08;;;;;;;5.50;1.70;;;;;;;-10.12;66.97;102920.28;5045779;28;20095;-78
2024/01/07 00:42:35;;;;;;;2.70;0.95;;;;;;;-10.13;67.57;102908.38;5042268;28;20080;-76
2024/01/07 00:45:02;;;;;;;4.93;1.20;;;;;;;-10.13;67.80;102910.91;5046570;28;20103;-76
2024/01/07 00:47:29;;;;;;;2.55;1.00;;;;;;;-10.12;67.79;102927.88;5044813;28;20144;-76
2024/01/07 00:49:56;;;;;;;3.28;0.98;;;;;;;-10.14;67.87;102921.75;5044572;28;20099;-76
2024/01/07 00:52:24;;;;;;;5.03;1.38;;;;;;;-10.15;67.29;102928.47;5041539;28;20436;-76
2024/01/07 00:54:50;;;;;;;4.75;1.00;;;;;;;-10.16;67.19;102925.81;5044145;28;20098;-75
2024/01/07 00:57:18;;;;;;;4.55;1.20;;;;;;;-10.18;67.02;102934.88;5044548;28;20045;-75
2024/01/07 00:59:45;;;;;;;3.28;1.08;;;;;;;-10.19;67.73;102928.00;5046883;28;20475;-76
2024/01/07 01:02:12;;;;;;;3.60;0.77;;;;;;;-10.18;67.13;102938.31;5044033;28;21458;-76
2024/01/07 01:04:40;;;;;;;3.40;0.75;;;;;;;-10.19;67.81;102933.06;5042025;28;20049;-74
2024/01/07 01:07:08;;;;;;;3.00;0.70;;;;;;;-10.19;67.21;102943.19;5041809;28;20068;-73
2024/01/07 01:09:35;;;;;;;3.30;0.75;;;;;;;-10.21;67.50;102943.06;5041444;28;20557;-73
2024/01/07 01:12:02;;;;;;;4.22;1.05;;;;;;;-10.22;67.58;102950.50;5041007;28;20072;-74
2024/01/07 01:14:30;;;;;;;3.03;1.13;;;;;;;-10.23;67.41;102952.16;5037382;28;20725;-74
2024/01/07 01:17:00;;;;;;;4.78;1.25;;;;;;;-10.24;67.97;102950.38;5042345;28;20784;-75
2024/01/07 01:19:27;;;;;;;2.45;0.95;;;;;;;-10.23;67.30;102958.84;5043407;28;20046;-74
2024/01/07 01:21:53;;;;;;;7.50;1.13;;;;;;;-10.23;67.72;102958.84;5038519;28;20037;-74
2024/01/07 01:24:20;;;;;;;3.55;0.98;;;;;;;-10.22;67.49;102965.69;5043936;28;20058;-73
2024/01/07 01:26:47;;;;;;;4.60;1.05;;;;;;;-10.23;67.22;102963.91;5040200;28;20084;-73
2024/01/07 01:29:13;;;;;;;3.40;1.00;;;;;;;-10.23;67.46;102968.97;5040859;28;20423;-72
2024/01/07 01:31:41;;;;;;;2.35;1.00;;;;;;;-10.25;67.13;102970.47;5040831;28;20091;-73
2024/01/07 01:34:08;;;;;;;4.28;1.30;;;;;;;-10.25;67.27;102963.75;5043659;28;20104;-73
2024/01/07 01:36:35;;;;;;;3.83;1.17;;;;;;;-10.24;67.19;102965.56;5041589;28;20107;-73
2024/01/07 01:39:02;;;;;;;6.22;0.82;;;;;;;-10.24;67.74;102967.22;5038583;28;20175;-73
2024/01/07 01:41:29;;;;;;;3.72;0.88;;;;;;;-10.24;67.86;102977.34;5039542;28;20088;-73
2024/01/07 01:43:58;;;;;;;2.72;0.75;;;;;;;-10.26;67.42;102979.69;5041400;28;20077;-73
2024/01/07 01:46:25;;;;;;;2.10;0.65;;;;;;;-10.26;67.26;102976.28;5040125;28;20049;-74
2024/01/07 01:48:54;;;;;;;3.85;0.65;;;;;;;-10.27;68.02;102977.91;5040527;28;20133;-74
2024/01/07 01:51:21;;;;;;;6.63;0.90;;;;;;;-10.29;67.65;102980.28;5040276;28;20126;-73
2024/01/07 01:53:48;;;;;;;1.33;0.50;;;;;;;-10.34;67.27;102966.28;5039237;28;20056;-72
2024/01/07 01:56:18;;;;;;;4.10;0.70;;;;;;;-10.27;67.49;102982.09;5043739;28;20080;-72
2024/01/07 01:58:45;;;;;;;3.97;0.82;;;;;;;-10.26;67.43;102983.88;5036531;28;20081;-73
2024/01/07 02:01:13;;;;;;;4.50;0.75;;;;;;;-10.27;67.77;102984.63;5040267;28;20072;-72
2024/01/07 02:03:39;;;;;;;3.20;1.05;;;;;;;-10.27;68.10;102988.03;5040906;28;20123;-73
2024/01/07 02:06:08;;;;;;;5.22;1.08;;;;;;;-10.26;67.36;102991.47;5040417;28;20081;-72
2024/01/07 02:08:35;;;;;;;2.08;1.00;;;;;;;-10.26;68.00;102986.41;5038720;28;20142;-72
2024/01/07 02:11:16;;;;;;;4.68;1.48;;;;;;;-10.26;67.95;102986.41;5039249;28;20521;-72
2024/01/07 02:13:43;;;;;;;2.28;0.90;;;;;;;-10.27;67.36;102983.00;5044826;28;20052;-86
2024/01/07 02:16:10;;;;;;;2.50;0.70;;;;;;;-10.27;67.38;102987.16;5047354;28;20049;-86
2024/01/07 02:18:38;;;;;;;3.58;0.77;;;;;;;-10.26;67.34;102988.94;5050430;28;20080;-86
2024/01/07 02:21:05;;;;;;;3.65;0.90;;;;;;;-10.25;67.69;102996.66;5046944;28;20099;-86
2024/01/07 02:23:34;;;;;;;2.88;0.90;;;;;;;-10.27;68.09;102987.16;5048744;28;20503;-86
2024/01/07 02:26:02;;;;;;;4.28;0.85;;;;;;;-10.25;67.70;102986.53;5048436;28;20135;-86
2024/01/07 02:28:30;;;;;;;5.35;0.95;;;;;;;-10.24;68.05;102987.44;5047971;28;20053;-86
2024/01/07 02:30:57;;;;;;;1.85;0.60;;;;;;;-10.26;67.39;102992.34;5050135;28;20135;-86
2024/01/07 02:33:24;;;;;;;3.25;0.88;;;;;;;-10.26;67.55;102996.53;5049551;28;20098;-86
2024/01/07 02:35:51;;;;;;;3.03;0.63;;;;;;;-10.25;68.14;102994.13;5047835;28;20065;-86
2024/01/07 02:38:18;;;;;;;3.70;1.00;;;;;;;-10.25;67.45;102995.78;5050307;28;20072;-86
2024/01/07 02:40:45;;;;;;;1.88;0.80;;;;;;;-10.26;67.37;102996.53;5053806;28;20119;-86
2024/01/07 02:43:14;;;;;;;2.63;0.90;;;;;;;-10.24;67.72;103005.16;5049580;28;20099;-86
2024/01/07 02:45:40;;;;;;;1.58;0.60;;;;;;;-10.23;68.04;103009.47;5050431;28;20833;-86
2024/01/07 02:48:08;;;;;;;3.92;0.70;;;;;;;-10.24;68.02;103012.75;5047354;28;20132;-85
2024/01/07 02:50:35;;;;;;;3.25;0.90;;;;;;;-10.24;68.07;103012.75;5046541;28;20491;-86
2024/01/07 02:53:02;;;;;;;2.10;0.80;;;;;;;-10.25;67.82;103014.38;5041030;28;20045;-86
2024/01/07 02:55:29;;;;;;;5.05;0.85;;;;;;;-10.24;67.37;103012.75;5045274;28;20553;-86
2024/01/07 02:57:55;;;;;;;3.63;0.82;;;;;;;-10.24;67.82;103015.31;5053537;28;20107;-86
2024/01/07 03:00:24;;;;;;;3.58;1.08;;;;;;;-10.23;67.66;103019.59;5051029;28;20080;-85
2024/01/07 03:02:51;;;;;;;2.85;0.80;;;;;;;-10.24;67.34;103022.88;5044490;28;20107;-73
2024/01/07 03:05:18;;;;;;;2.92;0.55;;;;;;;-10.24;67.66;103033.00;5039993;28;20076;-73
2024/01/07 03:07:45;;;;;;;3.10;0.50;;;;;;;-10.26;67.93;103024.38;5037322;28;20077;-73
2024/01/07 03:10:12;;;;;;;1.55;0.70;;;;;;;-10.24;67.48;103038.97;5034245;28;20095;-72
2024/01/07 03:12:39;;;;;;;2.13;0.50;;;;;;;-10.24;67.29;103040.59;5040495;28;20084;-73
2024/01/07 03:15:08;;;;;;;4.35;0.68;;;;;;;-10.24;67.47;103038.97;5036454;28;20077;-72
2024/01/07 03:17:37;;;;;;;2.83;1.08;;;;;;;-10.24;67.56;103043.13;5036925;28;20056;-73
2024/01/07 03:20:04;;;;;;;2.60;0.93;;;;;;;-10.26;67.76;103039.56;5039070;28;20077;-73
2024/01/07 03:22:31;;;;;;;2.58;0.98;;;;;;;-10.24;68.18;103048.19;5037407;28;20045;-73
2024/01/07 03:24:58;;;;;;;1.90;0.50;;;;;;;-10.24;67.59;103045.66;5040299;28;20525;-73
2024/01/07 03:27:25;;;;;;;2.65;0.60;;;;;;;-10.24;67.55;103055.78;5042464;28;20171;-73
2024/01/07 03:29:52;;;;;;;3.08;0.82;;;;;;;-10.26;68.12;103058.16;5043480;28;20095;-72
2024/01/07 03:32:19;;;;;;;2.33;0.80;;;;;;;-10.25;67.54;103051.47;5042151;28;20696;-72
2024/01/07 03:34:47;;;;;;;3.40;0.65;;;;;;;-10.25;67.64;103059.03;5042953;28;20503;-73
2024/01/07 03:37:14;;;;;;;7.43;1.20;;;;;;;-10.24;68.17;103058.31;5043867;28;20064;-72
2024/01/07 03:39:41;;;;;;;2.58;0.77;;;;;;;-10.24;68.07;103068.44;5044848;28;20049;-73
2024/01/07 03:42:11;;;;;;;2.08;0.75;;;;;;;-10.25;68.10;103067.53;5043574;28;20099;-72
2024/01/07 03:44:38;;;;;;;3.33;0.95;;;;;;;-10.26;68.09;103068.28;5043661;28;20067;-73
2024/01/07 03:47:05;;;;;;;2.38;0.73;;;;;;;-10.23;67.96;103072.75;5039291;28;20061;-73
2024/01/07 03:49:32;;;;;;;4.80;1.15;;;;;;;-10.23;67.93;103075.28;5043816;28;20069;-73
2024/01/07 03:52:01;;;;;;;5.18;1.00;;;;;;;-10.23;67.40;103072.75;5043191;28;20084;-72
2024/01/07 03:54:28;;;;;;;2.00;0.77;;;;;;;-10.22;67.58;103077.06;5044408;28;20130;-72
2024/01/07 03:56:54;;;;;;;3.42;0.88;;;;;;;-10.20;67.97;103075.59;5038993;28;20045;-73
2024/01/07 03:59:24;;;;;;;2.30;0.55;;;;;;;-10.18;68.20;103081.72;5042541;28;20726;-73
2024/01/07 04:01:51;;;;;;;1.55;0.55;;;;;;;-10.19;67.80;103073.22;5042540;28;20049;-72
2024/01/07 04:04:18;;;;;;;3.97;0.80;;;;;;;-10.17;68.13;103076.78;5041145;28;20089;-73
2024/01/07 04:06:45;;;;;;;2.28;0.73;;;;;;;-10.15;68.36;103071.88;5042123;28;20132;-72
2024/01/07 04:09:14;;;;;;;1.63;0.60;;;;;;;-10.14;67.77;103073.66;5043803;28;20703;-73
2024/01/07 04:11:41;;;;;;;4.00;1.17;;;;;;;-10.13;68.25;103067.88;5038466;28;20080;-72
2024/01/07 04:14:08;;;;;;;1.27;0.52;;;;;;;-10.10;68.43;103065.63;5041766;28;20049;-74
2024/01/07 04:16:39;;;;;;;2.92;0.80;;;;;;;-10.08;68.00;103064.13;5039935;28;20080;-72
2024/01/07 04:19:06;;;;;;;4.55;0.90;;;;;;;-10.04;68.06;103080.53;5039043;28;20099;-73
2024/01/07 04:21:33;;;;;;;2.22;0.70;;;;;;;-10.03;68.43;103078.13;5042945;28;20083;-73
2024/01/07 04:24:00;;;;;;;3.65;0.70;;;;;;;-10.02;67.99;103087.53;5044095;28;20081;-73
2024/01/07 04:26:28;;;;;;;1.80;0.70;;;;;;;-9.99;68.31;103087.81;5043910;28;20124;-74
2024/01/07 04:28:55;;;;;;;4.00;0.95;;;;;;;-9.97;68.61;103081.25;5040138;28;20476;-73
2024/01/07 04:31:22;;;;;;;1.70;0.55;;;;;;;-9.95;68.33;103083.94;5040887;28;20088;-74
2024/01/07 04:33:49;;;;;;;2.75;0.47;;;;;;;-9.92;68.68;103090.19;5043326;28;20091;-76
2024/01/07 04:36:17;;;;;;;3.55;0.70;;;;;;;-9.91;67.79;103091.09;5043078;28;20538;-74
2024/01/07 04:38:44;;;;;;;4.43;1.00;;;;;;;-9.89;68.87;103094.66;5041122;28;20072;-75
2024/01/07 04:41:10;;;;;;;2.65;0.80;;;;;;;-9.87;68.69;103091.53;5044994;28;20135;-75
2024/01/07 04:43:40;;;;;;;2.70;0.65;;;;;;;-9.84;67.94;103098.53;5041387;28;20113;-75
2024/01/07 04:46:07;;;;;;;3.85;0.85;;;;;;;-9.83;67.93;103095.25;5042747;28;20053;-76
2024/01/07 04:48:34;;;;;;;3.40;0.60;;;;;;;-9.80;68.68;103095.56;5043990;28;20081;-76
2024/01/07 04:51:01;;;;;;;4.15;0.60;;;;;;;-9.76;68.61;103092.59;5041933;28;20081;-75
2024/01/07 04:53:28;;;;;;;2.58;0.90;;;;;;;-9.78;67.88;103094.06;5041615;28;20049;-75
2024/01/07 04:55:54;;;;;;;2.25;0.80;;;;;;;-9.73;68.46;103094.53;5042332;28;20510;-75
2024/01/07 04:58:21;;;;;;;4.47;1.60;;;;;;;-9.70;68.84;103092.28;5048875;28;20065;-75
2024/01/07 05:00:50;;;;;;;4.18;0.90;;;;;;;-9.68;68.38;103100.91;5041514;28;20073;-75
2024/01/07 05:03:17;;;;;;;2.40;0.75;;;;;;;-9.67;68.59;103092.56;5046073;28;20129;-75
2024/01/07 05:05:44;;;;;;;5.57;0.90;;;;;;;-9.64;68.66;103095.41;5041793;28;20081;-75
2024/01/07 05:08:11;;;;;;;2.75;0.88;;;;;;;-9.62;68.11;103093.91;5042288;28;20041;-75
2024/01/07 05:10:38;;;;;;;3.20;0.90;;;;;;;-9.61;68.41;103093.16;5044650;28;20573;-75
2024/01/07 05:13:06;;;;;;;2.67;0.70;;;;;;;-9.61;67.84;103101.66;5044836;28;20128;-75
2024/01/07 05:15:33;;;;;;;3.45;0.95;;;;;;;-9.59;68.53;103101.81;5042697;28;20127;-75
2024/01/07 05:18:02;;;;;;;3.35;0.85;;;;;;;-9.60;68.04;103105.97;5041795;28;20131;-75
2024/01/07 05:20:29;;;;;;;2.20;0.60;;;;;;;-9.61;68.49;103109.25;5040651;28;20076;-75
2024/01/07 05:22:56;;;;;;;3.20;0.80;;;;;;;-9.57;68.63;103118.03;5045211;28;20069;-77
2024/01/07 05:25:23;;;;;;;2.22;0.52;;;;;;;-9.58;68.33;103112.84;5052210;28;20104;-78
2024/01/07 05:27:49;;;;;;;2.22;0.75;;;;;;;-9.58;67.77;103121.31;5049613;28;20530;-77
2024/01/07 05:30:16;;;;;;;2.35;0.73;;;;;;;-9.57;68.56;103120.56;5048758;28;20175;-79
2024/01/07 05:32:43;;;;;;;3.28;0.73;;;;;;;-9.56;67.74;103122.38;5048902;28;20072;-78
2024/01/07 05:35:12;;;;;;;4.82;0.80;;;;;;;-9.57;68.56;103123.09;5046288;28;20084;-78
2024/01/07 05:37:39;;;;;;;1.92;0.70;;;;;;;-9.56;67.92;103127.44;5047229;28;20072;-79
2024/01/07 05:40:07;;;;;;;3.75;2.10;;;;;;;-9.56;68.71;103135.03;5047697;28;20521;-79
2024/01/07 05:42:34;;;;;;;5.40;0.90;;;;;;;-9.56;68.39;103137.59;5039746;28;21336;-77
2024/01/07 05:45:02;;;;;;;2.85;0.80;;;;;;;-9.55;68.54;103130.88;5040557;28;20103;-77
2024/01/07 05:47:29;;;;;;;2.03;0.82;;;;;;;-9.57;68.49;103139.94;5043725;28;20064;-76
2024/01/07 05:49:56;;;;;;;3.88;0.85;;;;;;;-9.59;68.17;103139.81;5044096;28;20610;-77
2024/01/07 05:52:25;;;;;;;3.75;0.93;;;;;;;-9.58;67.81;103139.06;5041288;28;20076;-76
2024/01/07 05:54:52;;;;;;;2.20;1.08;;;;;;;-9.60;68.09;103146.50;5042909;28;20122;-76
2024/01/07 05:57:19;;;;;;;3.05;0.73;;;;;;;-9.61;67.81;103146.38;5037454;28;20532;-77
2024/01/07 05:59:46;;;;;;;3.03;0.60;;;;;;;-9.72;67.94;103134.31;5043406;28;20075;-77
2024/01/07 06:02:13;;;;;;;2.25;0.80;;;;;;;-9.62;68.18;103157.25;5043358;28;20072;-76
2024/01/07 06:04:40;;;;;;;2.72;0.95;;;;;;;-9.63;67.70;103158.00;5041946;28;20052;-76
2024/01/07 06:07:07;;;;;;;2.05;0.85;;;;;;;-9.64;67.65;103158.75;5042210;28;20099;-76
2024/01/07 06:09:35;;;;;;;3.03;1.00;;;;;;;-9.66;67.48;103160.22;5045129;28;20102;-76
2024/01/07 06:12:02;;;;;;;2.65;0.63;;;;;;;-9.68;68.13;103166.78;5040978;28;20521;-76
2024/01/07 06:14:29;;;;;;;3.47;0.80;;;;;;;-9.68;67.97;103161.72;5043277;28;20170;-76
2024/01/07 06:16:56;;;;;;;1.67;0.70;;;;;;;-9.69;67.64;103170.94;5044004;28;20097;-77
2024/01/07 06:19:23;;;;;;;2.22;0.65;;;;;;;-9.70;67.99;103165.75;5039849;28;20497;-77
2024/01/07 06:21:50;;;;;;;5.18;1.00;;;;;;;-9.72;67.87;103169.78;5040983;28;20072;-76
2024/01/07 06:24:17;;;;;;;2.55;0.90;;;;;;;-9.73;67.69;103165.47;5040157;28;20128;-76
2024/01/07 06:26:46;;;;;;;2.85;0.60;;;;;;;-9.76;68.04;103173.66;5039103;28;20048;-77
2024/01/07 06:29:13;;;;;;;2.90;1.52;;;;;;;-9.77;68.29;103174.38;5044201;28;20087;-76
2024/01/07 06:31:45;;;;;;;3.72;0.98;;;;;;;-9.79;68.21;103180.03;5041205;28;20081;-76
2024/01/07 06:34:15;;;;;;;4.15;0.55;;;;;;;-9.80;68.18;103183.31;5039293;28;20048;-70
2024/01/07 06:36:42;;;;;;;4.05;0.95;;;;;;;-9.83;67.54;103189.88;5039801;28;20049;-70
2024/01/07 06:39:14;;;;;;;4.68;1.23;;;;;;;-9.84;68.07;103182.13;5042430;28;20045;-71
2024/01/07 06:41:42;;;;;;;2.70;0.93;;;;;;;-9.86;67.90;103194.63;5043266;28;20086;-70
2024/01/07 06:44:10;;;;;;;2.42;0.82;;;;;;;-9.89;67.40;103201.03;5039345;28;20132;-71
2024/01/07 06:46:37;;;;;;;3.28;1.40;;;;;;;-9.90;67.79;103199.25;5036011;28;20056;-71
2024/01/07 06:49:04;;;;;;;4.43;0.98;;;;;;;-9.93;67.90;103204.91;5039439;28;20095;-70
2024/01/07 06:51:31;;;;;;;2.17;1.02;;;;;;;-9.94;67.51;103203.09;5039167;28;20136;-71
2024/01/07 06:53:58;;;;;;;2.35;0.68;;;;;;;-9.96;67.56;103208.78;5039364;28;20076;-70
2024/01/07 06:56:25;;;;;;;2.70;0.70;;;;;;;-9.99;68.17;103214.44;5039510;28;20132;-71
2024/01/07 06:58:52;;;;;;;1.88;0.60;;;;;;;-10.00;67.49;103211.75;5039954;28;20501;-71
2024/01/07 07:01:23;;;;;;;1.75;0.60;;;;;;;-10.02;67.91;103224.28;5039423;28;20052;-70
2024/01/07 07:03:50;;;;;;;1.88;0.77;;;;;;;-10.03;67.86;103232.59;5042750;28;20041;-70
2024/01/07 07:06:17;;;;;;;3.17;0.85;;;;;;;-10.08;67.48;103227.09;5043477;28;20507;-71
2024/01/07 07:08:44;;;;;;;3.80;1.10;;;;;;;-10.08;68.01;103234.69;5040770;28;20124;-71
2024/01/07 07:11:11;;;;;;;1.73;0.90;;;;;;;-10.10;68.16;103235.25;5042372;28;20045;-71
2024/01/07 07:13:39;;;;;;;4.80;1.00;;;;;;;-10.11;67.63;103238.50;5041237;28;20139;-70
2024/01/07 07:16:07;;;;;;;1.52;0.77;;;;;;;-10.14;67.56;103233.16;5041936;28;20053;-71
2024/01/07 07:18:35;;;;;;;2.67;0.57;;;;;;;-10.16;67.98;103237.19;5040238;28;20053;-71
2024/01/07 07:21:03;;;;;;;2.00;1.00;;;;;;;-10.20;68.12;103243.56;5042959;28;20534;-71
2024/01/07 07:23:30;;;;;;;3.13;0.70;;;;;;;-10.23;67.74;103243.25;5040322;28;20098;-72
2024/01/07 07:25:57;;;;;;;5.43;0.60;;;;;;;-10.21;68.08;103251.00;5044810;28;20209;-71
2024/01/07 07:28:24;;;;;;;1.35;1.05;;;;;;;-10.24;67.76;103258.28;5043598;28;20068;-70
2024/01/07 07:30:51;;;;;;;4.18;0.55;;;;;;;-10.27;67.66;103258.88;5043254;28;20076;-70
2024/01/07 07:33:18;;;;;;;1.33;0.57;;;;;;;-10.29;68.06;103263.78;5041980;28;20558;-70
2024/01/07 07:35:46;;;;;;;2.15;0.65;;;;;;;-10.33;67.74;103260.78;5042051;28;20053;-70
2024/01/07 07:38:14;;;;;;;2.20;0.80;;;;;;;-10.33;67.75;103261.69;5041559;28;20056;-70
2024/01/07 07:40:41;;;;;;;4.53;0.55;;;;;;;-10.36;67.92;103261.38;5044749;28;20044;-70
2024/01/07 07:43:09;;;;;;;1.92;0.73;;;;;;;-10.38;67.27;103265.38;5041102;28;20403;-71
2024/01/07 07:45:36;;;;;;;4.75;2.83;;;;;;;-10.39;67.47;103266.13;5043663;28;20140;-71
2024/01/07 07:48:03;;;;;;;1.98;0.70;;;;;;;-10.41;67.45;103267.59;5043949;28;20049;-69
2024/01/07 07:50:30;;;;;;;3.05;0.50;;;;;;;-10.44;67.21;103266.41;5043945;28;20072;-68
2024/01/07 07:52:59;;;;;;;2.15;0.70;;;;;;;-10.44;67.54;103282.47;5040137;28;20040;-68
2024/01/07 07:55:26;;;;;;;1.55;0.60;;;;;;;-10.46;67.17;103281.41;5041515;28;20134;-68
2024/01/07 07:57:53;;;;;;;1.08;0.50;;;;;;;-10.47;67.67;103277.09;5040354;28;20155;-69
2024/01/07 08:00:21;;;;;;;2.67;0.60;;;;;;;-10.48;67.25;103279.44;5041984;28;20460;-69
2024/01/07 08:02:48;;;;;;;2.47;1.02;;;;;;;-10.52;67.91;103284.19;5043107;28;20041;-74
2024/01/07 08:05:15;;;;;;;4.55;0.57;;;;;;;-10.52;67.29;103288.38;5043155;28;20052;-74
2024/01/07 08:07:42;;;;;;;2.45;0.80;;;;;;;-10.55;67.62;103288.94;5043412;28;20056;-75
2024/01/07 08:10:10;;;;;;;1.27;0.50;;;;;;;-10.56;67.00;103291.31;5041399;28;20056;-74
2024/01/07 08:12:39;;;;;;;2.15;0.63;;;;;;;-10.56;67.50;103291.31;5044721;28;20077;-75
2024/01/07 08:15:08;;;;;;;5.15;0.73;;;;;;;-10.58;67.09;103295.34;5044405;28;20524;-75
2024/01/07 08:17:34;;;;;;;1.90;0.75;;;;;;;-10.60;67.60;103289.22;5042088;28;20857;-74
2024/01/07 08:20:03;;;;;;;2.08;0.60;;;;;;;-10.60;67.47;103294.28;5043832;28;20045;-74
2024/01/07 08:22:30;;;;;;;2.38;0.60;;;;;;;-10.63;67.75;103296.50;5046902;28;20073;-74
2024/01/07 08:24:57;;;;;;;4.45;0.60;;;;;;;-10.64;67.83;103299.78;5045180;28;20452;-75
2024/01/07 08:27:26;;;;;;;3.75;1.45;;;;;;;-10.65;67.42;103306.44;5044968;28;20081;-75
2024/01/07 08:29:53;;;;;;;2.42;1.17;;;;;;;-10.66;67.98;103313.88;5040872;28;20045;-75
2024/01/07 08:32:22;;;;;;;1.83;0.50;;;;;;;-10.66;67.67;103324.00;5043316;28;20502;-76
2024/01/07 08:34:49;;;;;;;2.22;0.60;;;;;;;-10.68;67.23;103320.41;5041885;28;20049;-75
2024/01/07 08:37:16;;;;;;;3.13;0.73;;;;;;;-10.70;67.78;103317.75;5041564;28;20065;-75
2024/01/07 08:39:43;;;;;;;7.03;0.90;;;;;;;-10.80;67.10;103307.38;5041929;28;20124;-74
2024/01/07 08:42:10;;;;;;;2.75;0.77;;;;;;;-10.75;67.43;103319.78;5046791;28;20072;-75
2024/01/07 08:44:39;;;;;;;6.15;1.50;;;;;;;-10.75;67.78;103327.38;5044326;28;20084;-75
2024/01/07 08:47:06;;;;;;;2.88;0.93;;;;;;;-10.81;67.19;103319.13;5038708;28;20076;-75
2024/01/07 08:49:34;;;;;;;4.93;1.20;;;;;;;-10.77;67.18;103330.47;5043705;28;20045;-75
2024/01/07 08:52:01;;;;;;;5.80;1.27;;;;;;;-10.78;67.45;103328.69;5043966;28;20559;-75
2024/01/07 08:54:28;;;;;;;3.42;1.15;;;;;;;-10.80;67.32;103337.72;5040609;28;20704;-73
2024/01/07 08:56:55;;;;;;;4.10;1.30;;;;;;;-10.82;67.61;103340.13;5041139;28;20140;-73
2024/01/07 08:59:22;;;;;;;3.28;1.23;;;;;;;-10.87;67.22;103330.25;5040754;28;20088;-73
2024/01/07 09:01:50;;;;;;;2.60;1.02;;;;;;;-10.92;67.28;103329.75;5038098;28;20076;-74
2024/01/07 09:04:17;;;;;;;5.72;1.50;;;;;;;-10.86;66.95;103349.75;5039953;28;20072;-74
2024/01/07 09:06:44;;;;;;;4.57;1.40;;;;;;;-10.88;67.57;103339.44;5040268;28;20061;-73
2024/01/07 09:09:11;;;;;;;4.93;2.00;;;;;;;-10.90;67.56;103335.88;5041044;28;20073;-73
2024/01/07 09:11:38;;;;;;;8.05;2.53;;;;;;;-10.91;67.08;103326.50;5040772;28;20081;-74
2024/01/07 09:14:05;;;;;;;6.38;1.90;;;;;;;-10.88;67.18;103346.16;5041958;28;20484;-76
2024/01/07 09:16:32;;;;;;;5.90;2.20;;;;;;;-10.87;67.65;103345.44;5040286;28;20067;-76
2024/01/07 09:19:01;;;;;;;3.90;2.10;;;;;;;-10.88;67.54;103339.44;5042700;28;20045;-76
2024/01/07 09:21:28;;;;;;;5.63;1.52;;;;;;;-10.88;67.65;103344.50;5043364;28;20048;-76
2024/01/07 09:23:55;;;;;;;6.78;1.80;;;;;;;-10.89;67.26;103345.25;5043524;28;20091;-76
2024/01/07 09:26:22;;;;;;;6.43;1.35;;;;;;;-10.88;67.22;103349.56;5047960;28;20786;-76
2024/01/07 09:28:49;;;;;;;6.95;1.42;;;;;;;-10.89;67.35;103357.00;5044173;28;20048;-76
2024/01/07 09:31:16;;;;;;;4.68;1.67;;;;;;;-10.91;67.69;103351.78;5045086;28;20079;-76
2024/01/07 09:33:43;;;;;;;2.38;1.17;;;;;;;-10.92;67.85;103351.63;5046105;28;20059;-76
2024/01/07 09:36:11;;;;;;;7.40;1.95;;;;;;;-10.91;67.50;103356.84;5044806;28;20131;-76
2024/01/07 09:38:38;;;;;;;5.90;1.33;;;;;;;-10.92;67.14;103355.06;5040014;28;20116;-76
2024/01/07 09:41:05;;;;;;;7.55;2.22;;;;;;;-10.93;67.12;103358.31;5045599;28;20044;-76
2024/01/07 09:43:33;;;;;;;8.68;1.98;;;;;;;-10.93;66.96;103358.31;5044621;28;20107;-76
2024/01/07 09:46:01;;;;;;;5.28;1.75;;;;;;;-10.93;67.60;103365.00;5041494;28;20041;-76
2024/01/07 09:48:28;;;;;;;5.03;1.38;;;;;;;-10.96;67.46;103358.91;5044907;28;20454;-76
2024/01/07 09:50:55;;;;;;;6.97;1.65;;;;;;;-10.98;67.23;103362.88;5038920;28;20522;-76
2024/01/07 09:53:28;;;;;;;5.68;1.50;;;;;;;-10.99;67.76;103358.56;5043182;28;20064;-76
2024/01/07 09:56:02;;;;;;;5.55;1.58;;;;;;;-10.99;67.13;103363.63;5043751;28;20091;-76
2024/01/07 09:58:29;;;;;;;6.00;1.65;;;;;;;-11.00;66.97;103364.34;5042513;28;20514;-77
2024/01/07 10:00:56;;;;;;;3.05;1.50;;;;;;;-11.02;67.70;103359.84;5041102;28;20095;-76
2024/01/07 10:03:24;;;;;;;6.45;2.08;;;;;;;-11.03;67.39;103358.97;5040713;28;20076;-70
2024/01/07 10:05:51;;;;;;;7.75;2.05;;;;;;;-10.99;67.81;103366.16;5038299;28;20422;-70
2024/01/07 10:08:18;;;;;;;8.82;3.38;;;;;;;-10.97;67.33;103361.25;5038157;28;20084;-70
2024/01/07 10:10:46;;;;;;;7.47;2.47;;;;;;;-10.97;67.74;103362.13;5036954;28;20487;-70
2024/01/07 10:13:13;;;;;;;5.65;1.52;;;;;;;-10.93;67.40;103377.63;5041532;28;20074;-69
2024/01/07 10:15:40;;;;;;;9.48;2.15;;;;;;;-10.91;67.75;103376.16;5041369;28;20084;-70
2024/01/07 10:18:08;;;;;;;5.10;2.38;;;;;;;-10.90;67.17;103378.88;5037209;28;20044;-70
2024/01/07 10:20:36;;;;;;;5.93;1.88;;;;;;;-10.88;68.04;103377.38;5039916;28;20077;-70
2024/01/07 10:23:03;;;;;;;10.18;1.98;;;;;;;-10.86;68.06;103380.09;5044032;28;20044;-76
2024/01/07 10:25:32;;;;;;;7.70;2.92;;;;;;;-10.82;67.61;103388.16;5039064;28;20065;-76
2024/01/07 10:28:04;;;;;;;11.02;2.53;;;;;;;-10.79;67.40;103383.44;5040293;28;20056;-75
2024/01/07 10:30:31;;;;;;;6.00;1.85;;;;;;;-10.76;67.93;103378.69;5042786;28;20049;-75
2024/01/07 10:32:59;;;;;;;8.35;2.38;;;;;;;-10.75;67.50;103377.94;5045716;28;20487;-75
2024/01/07 10:35:30;;;;;;;9.05;2.78;;;;;;;-10.69;67.85;103379.34;5044131;28;20049;-76
2024/01/07 10:37:57;;;;;;;13.60;3.22;;;;;;;-10.68;68.08;103371.00;5043812;28;20053;-76
2024/01/07 10:40:26;;;;;;;6.80;2.47;;;;;;;-10.65;67.58;103371.31;5042763;28;20101;-76
2024/01/07 10:42:55;;;;;;;8.80;3.28;;;;;;;-10.61;67.54;103370.91;5042663;28;20069;-76
2024/01/07 10:45:24;;;;;;;7.45;2.75;;;;;;;-10.59;67.73;103377.00;5040691;28;20133;-75
2024/01/07 10:47:55;;;;;;;9.75;3.10;;;;;;;-10.55;68.09;103390.16;5042582;28;20075;-76
2024/01/07 10:50:23;;;;;;;7.25;2.85;;;;;;;-10.50;67.94;103388.13;5042766;28;20106;-76
2024/01/07 10:52:52;;;;;;;4.32;1.83;;;;;;;-10.46;68.02;103381.72;5044930;28;20072;-76
2024/01/07 10:55:20;;;;;;;8.95;2.92;;;;;;;-10.41;68.44;103393.25;5041947;28;20054;-76
2024/01/07 10:57:49;;;;;;;6.78;2.40;;;;;;;-10.38;68.33;103391.91;5041084;28;20509;-76
2024/01/07 11:00:19;;;;;;;10.82;2.60;;;;;;;-10.33;68.08;103402.53;5042456;28;20056;-76
2024/01/07 11:03:07;;;;;;;8.02;2.92;;;;;;;-10.29;68.54;103405.50;5041839;28;20045;-76
2024/01/07 11:05:43;;;;;;;5.80;2.05;;;;;;;-10.23;68.40;103404.38;5040878;28;20538;-75
2024/01/07 11:08:19;;;;;;;6.13;1.67;;;;;;;-10.19;68.51;103406.47;5041910;28;20534;-75
2024/01/07 11:10:51;;;;;;;4.72;1.83;;;;;;;-10.14;67.93;103410.38;5038145;28;20073;-75
2024/01/07 11:13:34;;;;;;;9.48;2.83;;;;;;;-10.10;68.43;103408.31;5035003;28;20443;-72
2024/01/07 11:16:02;;;;;;;5.20;1.98;;;;;;;-10.05;68.37;103406.25;5036676;28;20041;-72
2024/01/07 11:18:33;;;;;;;10.00;2.03;;;;;;;-10.00;67.98;103419.41;5039284;28;20128;-72
2024/01/07 11:21:02;;;;;;;6.70;2.50;;;;;;;-9.97;67.75;103409.56;5041458;28;20056;-72